sensor_id;sensor_type;location;lat;lon;timestamp;pressure;altitude;pressure_sealevel;temperature;humidity
77793;BME280;66983;51.438;5.438;2023-03-29T00:01:32;101600.13;;;6.34;75.27
77793;BME280;66983;51.438;5.438;2023-03-29T00:03:58;101596.56;;;6.35;74.58
77793;BME280;66983;51.438;5.438;2023-03-29T00:06:25;101600.97;;;6.36;74.37
77793;BME280;66983;51.438;5.438;2023-03-29T00:08:55;101592.19;;;6.34;73.70
77793;BME280;66983;51.438;5.438;2023-03-29T00:11:21;101589.50;;;6.36;73.98
77793;BME280;66983;51.438;5.438;2023-03-29T00:13:50;101588.59;;;6.38;74.05
77793;BME280;66983;51.438;5.438;2023-03-29T00:16:16;101575.38;;;6.38;73.65
77793;BME280;66983;51.438;5.438;2023-03-29T00:18:42;101578.84;;;6.43;74.49
77793;BME280;66983;51.438;5.438;2023-03-29T00:21:08;101570.91;;;6.43;74.00
77793;BME280;66983;51.438;5.438;2023-03-29T00:23:33;101570.06;;;6.41;74.09
77793;BME280;66983;51.438;5.438;2023-03-29T00:26:00;101571.78;;;6.45;73.41
77793;BME280;66983;51.438;5.438;2023-03-29T00:28:26;101562.94;;;6.46;74.05
77793;BME280;66983;51.438;5.438;2023-03-29T00:30:52;101566.47;;;6.47;73.63
77793;BME280;66983;51.438;5.438;2023-03-29T00:33:19;101562.06;;;6.47;75.15
77793;BME280;66983;51.438;5.438;2023-03-29T00:35:51;101558.53;;;6.47;74.47
77793;BME280;66983;51.438;5.438;2023-03-29T00:38:17;101552.34;;;6.46;74.34
77793;BME280;66983;51.438;5.438;2023-03-29T00:40:44;101556.75;;;6.47;74.56
77793;BME280;66983;51.438;5.438;2023-03-29T00:43:13;101562.94;;;6.46;74.42
77793;BME280;66983;51.438;5.438;2023-03-29T00:45:39;101556.78;;;6.46;75.00
77793;BME280;66983;51.438;5.438;2023-03-29T00:48:08;101559.41;;;6.47;74.94
77793;BME280;66983;51.438;5.438;2023-03-29T00:50:45;101563.75;;;6.52;75.56
77793;BME280;66983;51.438;5.438;2023-03-29T00:53:32;101559.31;;;6.54;74.23
77793;BME280;66983;51.438;5.438;2023-03-29T00:56:09;101557.50;;;6.57;75.37
77793;BME280;66983;51.438;5.438;2023-03-29T00:58:59;101546.91;;;6.59;74.79
77793;BME280;66983;51.438;5.438;2023-03-29T01:01:41;101539.84;;;6.58;74.63
77793;BME280;66983;51.438;5.438;2023-03-29T01:04:19;101544.25;;;6.59;75.06
77793;BME280;66983;51.438;5.438;2023-03-29T01:09:25;101540.66;;;6.64;74.56
77793;BME280;66983;51.438;5.438;2023-03-29T01:11:56;101537.09;;;6.67;74.71
77793;BME280;66983;51.438;5.438;2023-03-29T01:16:55;101528.25;;;6.69;75.19
77793;BME280;66983;51.438;5.438;2023-03-29T01:19:28;101533.53;;;6.69;74.89
77793;BME280;66983;51.438;5.438;2023-03-29T01:22:24;101536.19;;;6.71;75.00
77793;BME280;66983;51.438;5.438;2023-03-29T01:25:15;101525.59;;;6.71;75.58
77793;BME280;66983;51.438;5.438;2023-03-29T01:27:53;101514.09;;;6.72;75.64
77793;BME280;66983;51.438;5.438;2023-03-29T01:30:37;101514.97;;;6.74;75.82
77793;BME280;66983;51.438;5.438;2023-03-29T01:35:45;101511.31;;;6.81;75.44
77793;BME280;66983;51.438;5.438;2023-03-29T01:38:29;101505.94;;;6.87;75.09
77793;BME280;66983;51.438;5.438;2023-03-29T01:40:55;101500.63;;;6.87;75.32
77793;BME280;66983;51.438;5.438;2023-03-29T01:43:26;101494.44;;;6.90;75.98
77793;BME280;66983;51.438;5.438;2023-03-29T01:46:14;101496.19;;;6.91;75.96
77793;BME280;66983;51.438;5.438;2023-03-29T01:49:00;101487.31;;;6.95;74.83
77793;BME280;66983;51.438;5.438;2023-03-29T01:51:38;101486.41;;;6.94;74.82
77793;BME280;66983;51.438;5.438;2023-03-29T01:54:11;101482.88;;;6.95;75.08
77793;BME280;66983;51.438;5.438;2023-03-29T01:56:43;101469.59;;;6.97;75.03
77793;BME280;66983;51.438;5.438;2023-03-29T01:59:13;101468.72;;;6.96;74.99
77793;BME280;66983;51.438;5.438;2023-03-29T02:01:47;101464.25;;;7.00;74.45
77793;BME280;66983;51.438;5.438;2023-03-29T02:04:18;101461.59;;;7.01;74.14
77793;BME280;66983;51.438;5.438;2023-03-29T02:06:45;101466.03;;;7.01;73.56
77793;BME280;66983;51.438;5.438;2023-03-29T02:09:15;101463.31;;;7.02;73.33
77793;BME280;66983;51.438;5.438;2023-03-29T02:11:43;101460.59;;;7.08;73.97
77793;BME280;66983;51.438;5.438;2023-03-29T02:14:09;101465.00;;;7.09;73.67
77793;BME280;66983;51.438;5.438;2023-03-29T02:16:36;101468.53;;;7.08;73.07
77793;BME280;66983;51.438;5.438;2023-03-29T02:19:05;101449.97;;;7.08;73.35
77793;BME280;66983;51.438;5.438;2023-03-29T02:21:39;101451.75;;;7.09;75.17
77793;BME280;66983;51.438;5.438;2023-03-29T02:24:11;101452.63;;;7.08;73.02
77793;BME280;66983;51.438;5.438;2023-03-29T02:26:38;101449.09;;;7.08;73.99
77793;BME280;66983;51.438;5.438;2023-03-29T02:29:04;101445.59;;;7.07;73.29
77793;BME280;66983;51.438;5.438;2023-03-29T02:31:44;101442.03;;;7.08;73.51
77793;BME280;66983;51.438;5.438;2023-03-29T02:34:25;101435.84;;;7.09;73.23
77793;BME280;66983;51.438;5.438;2023-03-29T02:36:58;101434.94;;;7.10;72.82
77793;BME280;66983;51.438;5.438;2023-03-29T02:39:31;101426.09;;;7.11;72.17
77793;BME280;66983;51.438;5.438;2023-03-29T02:41:58;101423.47;;;7.10;72.34
77793;BME280;66983;51.438;5.438;2023-03-29T02:44:28;101434.91;;;7.13;73.13
77793;BME280;66983;51.438;5.438;2023-03-29T02:46:59;101427.78;;;7.15;72.49
77793;BME280;66983;51.438;5.438;2023-03-29T02:49:26;101425.97;;;7.19;71.36
77793;BME280;66983;51.438;5.438;2023-03-29T02:51:56;101421.53;;;7.21;71.38
77793;BME280;66983;51.438;5.438;2023-03-29T02:54:27;101411.81;;;7.22;71.67
77793;BME280;66983;51.438;5.438;2023-03-29T02:57:03;101410.94;;;7.20;72.01
77793;BME280;66983;51.438;5.438;2023-03-29T02:59:31;101415.31;;;7.24;72.06
77793;BME280;66983;51.438;5.438;2023-03-29T03:01:58;101415.25;;;7.27;71.38
77793;BME280;66983;51.438;5.438;2023-03-29T03:04:25;101411.69;;;7.28;71.82
77793;BME280;66983;51.438;5.438;2023-03-29T03:06:52;101406.38;;;7.28;70.75
77793;BME280;66983;51.438;5.438;2023-03-29T03:09:17;101409.88;;;7.30;71.30
77793;BME280;66983;51.438;5.438;2023-03-29T03:11:45;101397.59;;;7.26;71.44
77793;BME280;66983;51.438;5.438;2023-03-29T03:14:11;101406.31;;;7.31;71.05
77793;BME280;66983;51.438;5.438;2023-03-29T03:16:36;101401.03;;;7.31;71.17
77793;BME280;66983;51.438;5.438;2023-03-29T03:19:03;101404.53;;;7.33;71.66
77793;BME280;66983;51.438;5.438;2023-03-29T03:21:29;101404.47;;;7.36;70.94
77793;BME280;66983;51.438;5.438;2023-03-29T03:23:54;101401.84;;;7.36;70.65
77793;BME280;66983;51.438;5.438;2023-03-29T03:26:21;101403.59;;;7.35;70.77
77793;BME280;66983;51.438;5.438;2023-03-29T03:28:49;101390.34;;;7.35;70.68
77793;BME280;66983;51.438;5.438;2023-03-29T03:31:38;101390.31;;;7.37;70.90
77793;BME280;66983;51.438;5.438;2023-03-29T03:34:11;101396.50;;;7.37;70.90
77793;BME280;66983;51.438;5.438;2023-03-29T03:36:50;101393.91;;;7.34;70.94
77793;BME280;66983;51.438;5.438;2023-03-29T03:39:16;101388.56;;;7.36;71.60
77793;BME280;66983;51.438;5.438;2023-03-29T03:41:42;101396.53;;;7.36;70.18
77793;BME280;66983;51.438;5.438;2023-03-29T03:44:07;101398.25;;;7.38;70.72
77793;BME280;66983;51.438;5.438;2023-03-29T03:46:33;101389.44;;;7.38;70.63
77793;BME280;66983;51.438;5.438;2023-03-29T03:48:59;101392.06;;;7.38;70.99
77793;BME280;66983;51.438;5.438;2023-03-29T03:51:30;101390.31;;;7.38;71.46
77793;BME280;66983;51.438;5.438;2023-03-29T03:53:56;101382.38;;;7.37;71.41
77793;BME280;66983;51.438;5.438;2023-03-29T03:56:34;101392.94;;;7.40;71.09
77793;BME280;66983;51.438;5.438;2023-03-29T03:59:09;101396.47;;;7.40;71.13
77793;BME280;66983;51.438;5.438;2023-03-29T04:01:53;101398.22;;;7.41;71.29
77793;BME280;66983;51.438;5.438;2023-03-29T04:04:21;101391.16;;;7.40;71.22
77793;BME280;66983;51.438;5.438;2023-03-29T04:07:09;101381.47;;;7.38;71.34
77793;BME280;66983;51.438;5.438;2023-03-29T04:09:58;101376.97;;;7.43;71.21
77793;BME280;66983;51.438;5.438;2023-03-29T04:12:58;101385.84;;;7.40;70.86
77793;BME280;66983;51.438;5.438;2023-03-29T04:15:27;101376.13;;;7.41;70.23
77793;BME280;66983;51.438;5.438;2023-03-29T04:18:02;101386.69;;;7.42;70.79
77793;BME280;66983;51.438;5.438;2023-03-29T04:20:34;101377.88;;;7.42;70.72
77793;BME280;66983;51.438;5.438;2023-03-29T04:23:00;101380.50;;;7.43;70.39
77793;BME280;66983;51.438;5.438;2023-03-29T04:25:27;101376.06;;;7.44;71.63
77793;BME280;66983;51.438;5.438;2023-03-29T04:28:12;101368.09;;;7.45;71.83
77793;BME280;66983;51.438;5.438;2023-03-29T04:30:49;101371.63;;;7.46;71.51
77793;BME280;66983;51.438;5.438;2023-03-29T04:33:38;101373.38;;;7.45;71.44
77793;BME280;66983;51.438;5.438;2023-03-29T04:36:04;101365.41;;;7.47;70.78
77793;BME280;66983;51.438;5.438;2023-03-29T04:38:31;101363.63;;;7.47;71.85
77793;BME280;66983;51.438;5.438;2023-03-29T04:41:01;101371.56;;;7.49;71.56
77793;BME280;66983;51.438;5.438;2023-03-29T04:43:56;101366.22;;;7.51;71.32
77793;BME280;66983;51.438;5.438;2023-03-29T04:46:25;101369.75;;;7.51;71.86
77793;BME280;66983;51.438;5.438;2023-03-29T04:49:07;101375.91;;;7.53;71.17
77793;BME280;66983;51.438;5.438;2023-03-29T04:51:37;101374.09;;;7.55;70.81
77793;BME280;66983;51.438;5.438;2023-03-29T04:54:03;101367.03;;;7.54;71.37
77793;BME280;66983;51.438;5.438;2023-03-29T04:56:36;101357.25;;;7.58;70.32
77793;BME280;66983;51.438;5.438;2023-03-29T04:59:20;101359.00;;;7.57;71.07
77793;BME280;66983;51.438;5.438;2023-03-29T05:01:46;101356.31;;;7.60;70.70
77793;BME280;66983;51.438;5.438;2023-03-29T05:04:12;101354.50;;;7.62;70.52
77793;BME280;66983;51.438;5.438;2023-03-29T05:06:45;101348.28;;;7.65;71.34
77793;BME280;66983;51.438;5.438;2023-03-29T05:09:11;101353.56;;;7.65;70.91
77793;BME280;66983;51.438;5.438;2023-03-29T05:11:48;101347.38;;;7.66;71.16
77793;BME280;66983;51.438;5.438;2023-03-29T05:14:14;101353.56;;;7.66;71.50
77793;BME280;66983;51.438;5.438;2023-03-29T05:16:41;101353.53;;;7.68;71.02
77793;BME280;66983;51.438;5.438;2023-03-29T05:19:07;101345.53;;;7.69;70.42
77793;BME280;66983;51.438;5.438;2023-03-29T05:21:36;101346.38;;;7.71;70.32
77793;BME280;66983;51.438;5.438;2023-03-29T05:24:06;101352.53;;;7.73;70.47
77793;BME280;66983;51.438;5.438;2023-03-29T05:27:09;101344.56;;;7.75;70.99
77793;BME280;66983;51.438;5.438;2023-03-29T05:29:36;101347.19;;;7.76;71.86
77793;BME280;66983;51.438;5.438;2023-03-29T05:32:21;101344.56;;;7.73;70.94
77793;BME280;66983;51.438;5.438;2023-03-29T05:34:46;101357.75;;;7.78;70.81
77793;BME280;66983;51.438;5.438;2023-03-29T05:37:12;101355.91;;;7.81;70.89
77793;BME280;66983;51.438;5.438;2023-03-29T05:39:47;101365.59;;;7.82;71.22
77793;BME280;66983;51.438;5.438;2023-03-29T05:42:14;101368.25;;;7.84;70.57
77793;BME280;66983;51.438;5.438;2023-03-29T05:44:50;101374.38;;;7.88;71.49
77793;BME280;66983;51.438;5.438;2023-03-29T05:47:18;101375.25;;;7.87;72.03
77793;BME280;66983;51.438;5.438;2023-03-29T05:49:44;101370.78;;;7.90;71.37
77793;BME280;66983;51.438;5.438;2023-03-29T05:52:13;101366.28;;;7.94;70.32
77793;BME280;66983;51.438;5.438;2023-03-29T05:54:39;101369.78;;;7.96;71.37
77793;BME280;66983;51.438;5.438;2023-03-29T05:57:06;101372.38;;;7.99;69.92
77793;BME280;66983;51.438;5.438;2023-03-29T05:59:31;101365.31;;;7.98;71.63
77793;BME280;66983;51.438;5.438;2023-03-29T06:01:58;101367.06;;;8.00;71.63
77793;BME280;66983;51.438;5.438;2023-03-29T06:04:30;101366.13;;;8.03;71.63
77793;BME280;66983;51.438;5.438;2023-03-29T06:07:19;101363.34;;;8.07;71.25
77793;BME280;66983;51.438;5.438;2023-03-29T06:10:00;101361.53;;;8.09;71.64
77793;BME280;66983;51.438;5.438;2023-03-29T06:12:27;101370.34;;;8.11;71.71
77793;BME280;66983;51.438;5.438;2023-03-29T06:14:56;101364.09;;;8.14;71.17
77793;BME280;66983;51.438;5.438;2023-03-29T06:17:35;101365.75;;;8.20;71.72
77793;BME280;66983;51.438;5.438;2023-03-29T06:20:01;101368.34;;;8.23;71.32
77793;BME280;66983;51.438;5.438;2023-03-29T06:22:30;101369.19;;;8.25;71.72
77793;BME280;66983;51.438;5.438;2023-03-29T06:24:55;101377.97;;;8.28;71.66
77793;BME280;66983;51.438;5.438;2023-03-29T06:27:25;101370.00;;;8.30;72.40
77793;BME280;66983;51.438;5.438;2023-03-29T06:29:51;101367.25;;;8.34;71.45
77793;BME280;66983;51.438;5.438;2023-03-29T06:32:18;101372.53;;;8.36;71.84
77793;BME280;66983;51.438;5.438;2023-03-29T06:34:46;101374.25;;;8.38;71.46
77793;BME280;66983;51.438;5.438;2023-03-29T06:37:38;101365.38;;;8.39;71.49
77793;BME280;66983;51.438;5.438;2023-03-29T06:40:15;101362.69;;;8.41;72.37
77793;BME280;66983;51.438;5.438;2023-03-29T06:42:44;101358.19;;;8.44;72.58
77793;BME280;66983;51.438;5.438;2023-03-29T06:45:26;101358.97;;;8.49;71.46
77793;BME280;66983;51.438;5.438;2023-03-29T06:47:53;101365.03;;;8.55;71.91
77793;BME280;66983;51.438;5.438;2023-03-29T06:50:19;101361.38;;;8.59;71.43
77793;BME280;66983;51.438;5.438;2023-03-29T06:53:03;101361.25;;;8.65;72.77
77793;BME280;66983;51.438;5.438;2023-03-29T06:55:30;101348.78;;;8.68;70.98
77793;BME280;66983;51.438;5.438;2023-03-29T06:57:59;101360.16;;;8.75;70.96
77793;BME280;66983;51.438;5.438;2023-03-29T07:00:25;101368.03;;;8.79;71.83
77793;BME280;66983;51.438;5.438;2023-03-29T07:03:26;101367.00;;;8.83;72.62
77793;BME280;66983;51.438;5.438;2023-03-29T07:05:59;101369.56;;;8.88;71.60
77793;BME280;66983;51.438;5.438;2023-03-29T07:08:27;101373.06;;;8.90;72.07
77793;BME280;66983;51.438;5.438;2023-03-29T07:11:01;101372.84;;;8.99;72.43
77793;BME280;66983;51.438;5.438;2023-03-29T07:13:47;101377.16;;;9.05;72.09
77793;BME280;66983;51.438;5.438;2023-03-29T07:19:57;101368.94;;;9.14;71.23
77793;BME280;66983;51.438;5.438;2023-03-29T07:22:45;101378.59;;;9.18;71.13
77793;BME280;66983;51.438;5.438;2023-03-29T07:25:12;101375.84;;;9.23;72.85
77793;BME280;66983;51.438;5.438;2023-03-29T07:27:40;101382.00;;;9.25;72.67
77793;BME280;66983;51.438;5.438;2023-03-29T07:30:09;101384.53;;;9.29;71.49
77793;BME280;66983;51.438;5.438;2023-03-29T07:32:40;101385.38;;;9.31;70.84
77793;BME280;66983;51.438;5.438;2023-03-29T07:35:22;101390.66;;;9.33;71.92
77793;BME280;66983;51.438;5.438;2023-03-29T07:37:47;101394.19;;;9.33;71.21
77793;BME280;66983;51.438;5.438;2023-03-29T07:40:15;101401.31;;;9.33;71.87
77793;BME280;66983;51.438;5.438;2023-03-29T07:43:07;101401.16;;;9.37;71.71
77793;BME280;66983;51.438;5.438;2023-03-29T07:45:35;101409.09;;;9.39;72.31
77793;BME280;66983;51.438;5.438;2023-03-29T07:48:06;101410.94;;;9.37;74.01
77793;BME280;66983;51.438;5.438;2023-03-29T07:50:47;101415.31;;;9.39;74.56
77793;BME280;66983;51.438;5.438;2023-03-29T07:53:14;101414.38;;;9.40;74.53
77793;BME280;66983;51.438;5.438;2023-03-29T07:55:40;101410.72;;;9.46;74.46
77793;BME280;66983;51.438;5.438;2023-03-29T07:58:29;101414.28;;;9.45;74.97
77793;BME280;66983;51.438;5.438;2023-03-29T08:00:57;101420.44;;;9.47;75.87
77793;BME280;66983;51.438;5.438;2023-03-29T08:03:50;101417.75;;;9.48;76.86
77793;BME280;66983;51.438;5.438;2023-03-29T08:06:16;101415.03;;;9.50;77.71
77793;BME280;66983;51.438;5.438;2023-03-29T08:08:42;101415.94;;;9.49;77.02
77793;BME280;66983;51.438;5.438;2023-03-29T08:11:11;101410.56;;;9.52;78.10
77793;BME280;66983;51.438;5.438;2023-03-29T08:13:54;101419.38;;;9.54;78.31
77793;BME280;66983;51.438;5.438;2023-03-29T08:16:40;101415.81;;;9.55;78.33
77793;BME280;66983;51.438;5.438;2023-03-29T08:19:11;101410.41;;;9.58;78.77
77793;BME280;66983;51.438;5.438;2023-03-29T08:21:51;101410.34;;;9.61;78.48
77793;BME280;66983;51.438;5.438;2023-03-29T08:24:18;101411.28;;;9.59;79.85
77793;BME280;66983;51.438;5.438;2023-03-29T08:26:47;101416.66;;;9.57;79.21
77793;BME280;66983;51.438;5.438;2023-03-29T08:29:15;101416.72;;;9.54;79.72
77793;BME280;66983;51.438;5.438;2023-03-29T08:31:42;101402.63;;;9.50;79.00
77793;BME280;66983;51.438;5.438;2023-03-29T08:34:08;101406.06;;;9.54;80.12
77793;BME280;66983;51.438;5.438;2023-03-29T08:36:46;101401.59;;;9.56;82.02
77793;BME280;66983;51.438;5.438;2023-03-29T08:39:26;101399.75;;;9.58;81.80
77793;BME280;66983;51.438;5.438;2023-03-29T08:45:29;101398.84;;;9.59;81.58
77793;BME280;66983;51.438;5.438;2023-03-29T08:50:37;101404.81;;;9.67;81.30
77793;BME280;66983;51.438;5.438;2023-03-29T08:53:11;101402.88;;;9.74;81.86
77793;BME280;66983;51.438;5.438;2023-03-29T08:56:20;101391.22;;;9.79;81.31
77793;BME280;66983;51.438;5.438;2023-03-29T08:59:04;101390.13;;;9.86;81.86
77793;BME280;66983;51.438;5.438;2023-03-29T09:01:38;101386.50;;;9.89;80.24
77793;BME280;66983;51.438;5.438;2023-03-29T09:04:06;101391.59;;;9.97;81.03
77793;BME280;66983;51.438;5.438;2023-03-29T09:06:47;101383.28;;;10.09;80.82
77793;BME280;66983;51.438;5.438;2023-03-29T09:09:22;101385.63;;;10.21;80.36
77793;BME280;66983;51.438;5.438;2023-03-29T09:14:38;101376.06;;;10.43;79.21
77793;BME280;66983;51.438;5.438;2023-03-29T09:26:06;101379.22;;;10.58;77.76
77793;BME280;66983;51.438;5.438;2023-03-29T09:29:04;101373.81;;;10.61;77.18
77793;BME280;66983;51.438;5.438;2023-03-29T09:31:41;101380.84;;;10.63;77.73
77793;BME280;66983;51.438;5.438;2023-03-29T09:34:13;101392.19;;;10.68;78.07
77793;BME280;66983;51.438;5.438;2023-03-29T09:37:02;101397.50;;;10.70;78.79
77793;BME280;66983;51.438;5.438;2023-03-29T09:39:28;101391.59;;;10.60;80.06
77793;BME280;66983;51.438;5.438;2023-03-29T09:42:12;101391.84;;;10.51;81.07
77793;BME280;66983;51.438;5.438;2023-03-29T09:44:53;101404.44;;;10.46;81.65
77793;BME280;66983;51.438;5.438;2023-03-29T09:47:34;101402.72;;;10.43;81.86
77793;BME280;66983;51.438;5.438;2023-03-29T09:50:12;101390.44;;;10.39;81.66
77793;BME280;66983;51.438;5.438;2023-03-29T09:52:41;101383.25;;;10.41;81.63
77793;BME280;66983;51.438;5.438;2023-03-29T09:55:16;101380.53;;;10.43;80.93
77793;BME280;66983;51.438;5.438;2023-03-29T09:58:21;101385.00;;;10.42;81.18
77793;BME280;66983;51.438;5.438;2023-03-29T10:00:51;101391.16;;;10.44;81.69
77793;BME280;66983;51.438;5.438;2023-03-29T10:03:21;101385.72;;;10.47;82.31
77793;BME280;66983;51.438;5.438;2023-03-29T10:05:58;101399.84;;;10.51;82.48
77793;BME280;66983;51.438;5.438;2023-03-29T10:08:27;101389.97;;;10.54;82.28
77793;BME280;66983;51.438;5.438;2023-03-29T10:10:57;101391.44;;;10.65;84.11
77793;BME280;66983;51.438;5.438;2023-03-29T10:13:29;101389.22;;;10.79;81.56
77793;BME280;66983;51.438;5.438;2023-03-29T10:16:08;101389.97;;;10.84;80.92
77793;BME280;66983;51.438;5.438;2023-03-29T10:18:42;101386.38;;;10.85;81.19
77793;BME280;66983;51.438;5.438;2023-03-29T10:21:12;101393.41;;;10.87;80.94
77793;BME280;66983;51.438;5.438;2023-03-29T10:23:40;101379.91;;;10.92;79.94
77793;BME280;66983;51.438;5.438;2023-03-29T10:28:44;101363.28;;;11.38;82.53
77793;BME280;66983;51.438;5.438;2023-03-29T10:31:17;101361.09;;;11.74;79.44
77793;BME280;66983;51.438;5.438;2023-03-29T10:33:50;101359.63;;;11.92;77.69
77793;BME280;66983;51.438;5.438;2023-03-29T10:36:16;101340.69;;;11.98;77.72
77793;BME280;66983;51.438;5.438;2023-03-29T10:38:43;101360.63;;;12.13;76.39
77793;BME280;66983;51.438;5.438;2023-03-29T10:41:11;101362.50;;;12.11;74.81
77793;BME280;66983;51.438;5.438;2023-03-29T10:43:42;101350.19;;;12.07;74.94
77793;BME280;66983;51.438;5.438;2023-03-29T10:46:11;101349.69;;;12.20;76.23
77793;BME280;66983;51.438;5.438;2023-03-29T10:48:39;101345.81;;;12.28;75.33
77793;BME280;66983;51.438;5.438;2023-03-29T10:51:13;101337.53;;;12.35;75.12
77793;BME280;66983;51.438;5.438;2023-03-29T10:53:40;101334.56;;;12.43;73.75
77793;BME280;66983;51.438;5.438;2023-03-29T11:04:33;101320.28;;;12.66;73.82
77793;BME280;66983;51.438;5.438;2023-03-29T11:10:32;101324.19;;;12.79;73.79
77793;BME280;66983;51.438;5.438;2023-03-29T11:16:08;101312.31;;;12.86;73.91
77793;BME280;66983;51.438;5.438;2023-03-29T11:35:52;101312.56;;;13.23;71.15
77793;BME280;66983;51.438;5.438;2023-03-29T11:38:28;101309.59;;;13.30;72.32
77793;BME280;66983;51.438;5.438;2023-03-29T11:41:14;101305.34;;;13.46;72.51
77793;BME280;66983;51.438;5.438;2023-03-29T11:43:49;101305.88;;;13.54;70.32
77793;BME280;66983;51.438;5.438;2023-03-29T11:46:27;101308.09;;;13.65;69.51
77793;BME280;66983;51.438;5.438;2023-03-29T11:51:37;101299.22;;;13.83;70.38
77793;BME280;66983;51.438;5.438;2023-03-29T11:54:16;101298.81;;;13.92;69.23
77793;BME280;66983;51.438;5.438;2023-03-29T11:59:44;101282.47;;;14.17;68.97
77793;BME280;66983;51.438;5.438;2023-03-29T12:02:34;101288.22;;;14.28;66.64
77793;BME280;66983;51.438;5.438;2023-03-29T12:05:14;101290.72;;;14.31;66.55
77793;BME280;66983;51.438;5.438;2023-03-29T12:07:49;101288.22;;;14.28;68.57
77793;BME280;66983;51.438;5.438;2023-03-29T12:10:25;101299.34;;;14.38;66.76
77793;BME280;66983;51.438;5.438;2023-03-29T12:13:18;101285.84;;;14.41;66.80
77793;BME280;66983;51.438;5.438;2023-03-29T12:16:08;101288.97;;;14.50;65.97
77793;BME280;66983;51.438;5.438;2023-03-29T12:18:47;101291.56;;;14.52;66.27
77793;BME280;66983;51.438;5.438;2023-03-29T12:21:19;101279.97;;;14.51;66.61
77793;BME280;66983;51.438;5.438;2023-03-29T12:23:47;101283.19;;;14.58;65.97
77793;BME280;66983;51.438;5.438;2023-03-29T12:31:24;101280.50;;;14.77;65.19
77793;BME280;66983;51.438;5.438;2023-03-29T12:37:26;101272.53;;;14.75;64.20
77793;BME280;66983;51.438;5.438;2023-03-29T12:40:17;101281.69;;;14.71;64.00
77793;BME280;66983;51.438;5.438;2023-03-29T12:43:06;101262.25;;;14.66;64.22
77793;BME280;66983;51.438;5.438;2023-03-29T12:46:06;101248.75;;;14.68;64.65
77793;BME280;66983;51.438;5.438;2023-03-29T12:48:36;101237.00;;;14.70;63.95
77793;BME280;66983;51.438;5.438;2023-03-29T12:51:09;101220.75;;;14.73;64.06
77793;BME280;66983;51.438;5.438;2023-03-29T12:53:47;101216.91;;;14.79;64.33
77793;BME280;66983;51.438;5.438;2023-03-29T12:56:20;101219.50;;;14.98;63.78
77793;BME280;66983;51.438;5.438;2023-03-29T13:01:35;101207.03;;;15.14;64.27
77793;BME280;66983;51.438;5.438;2023-03-29T13:04:17;101212.94;;;15.20;63.01
77793;BME280;66983;51.438;5.438;2023-03-29T13:09:24;101197.78;;;15.19;63.48
77793;BME280;66983;51.438;5.438;2023-03-29T13:11:54;101202.13;;;15.22;63.38
77793;BME280;66983;51.438;5.438;2023-03-29T13:14:27;101207.50;;;15.22;63.34
77793;BME280;66983;51.438;5.438;2023-03-29T13:17:01;101199.84;;;15.14;63.77
77793;BME280;66983;51.438;5.438;2023-03-29T13:25:39;101194.00;;;15.23;62.97
77793;BME280;66983;51.438;5.438;2023-03-29T13:30:50;101182.00;;;15.13;63.64
77793;BME280;66983;51.438;5.438;2023-03-29T13:38:52;101168.63;;;15.29;63.45
77793;BME280;66983;51.438;5.438;2023-03-29T13:44:24;101162.44;;;15.44;63.29
77793;BME280;66983;51.438;5.438;2023-03-29T13:47:11;101162.50;;;15.43;63.16
77793;BME280;66983;51.438;5.438;2023-03-29T13:49:42;101162.69;;;15.40;64.01
77793;BME280;66983;51.438;5.438;2023-03-29T13:52:23;101164.00;;;15.48;63.28
77793;BME280;66983;51.438;5.438;2023-03-29T13:57:56;101149.53;;;15.51;64.05
77793;BME280;66983;51.438;5.438;2023-03-29T14:00:30;101154.63;;;15.57;63.20
77793;BME280;66983;51.438;5.438;2023-03-29T14:03:06;101146.91;;;15.67;63.24
77793;BME280;66983;51.438;5.438;2023-03-29T14:05:39;101145.63;;;15.74;63.74
77793;BME280;66983;51.438;5.438;2023-03-29T14:10:47;101152.97;;;15.70;62.52
77793;BME280;66983;51.438;5.438;2023-03-29T14:13:17;101134.50;;;15.64;63.22
77793;BME280;66983;51.438;5.438;2023-03-29T14:15:59;101140.91;;;15.61;63.37
77793;BME280;66983;51.438;5.438;2023-03-29T14:18:35;101131.38;;;15.56;62.57
77793;BME280;66983;51.438;5.438;2023-03-29T14:21:01;101120.06;;;15.49;63.70
77793;BME280;66983;51.438;5.438;2023-03-29T14:23:31;101129.63;;;15.55;63.97
77793;BME280;66983;51.438;5.438;2023-03-29T14:26:09;101123.91;;;15.61;63.59
77793;BME280;66983;51.438;5.438;2023-03-29T14:28:52;101126.34;;;15.66;63.75
77793;BME280;66983;51.438;5.438;2023-03-29T14:31:22;101116.31;;;15.69;63.42
77793;BME280;66983;51.438;5.438;2023-03-29T14:33:53;101109.13;;;15.70;63.10
77793;BME280;66983;51.438;5.438;2023-03-29T14:36:20;101105.22;;;15.75;63.27
77793;BME280;66983;51.438;5.438;2023-03-29T14:38:59;101109.22;;;15.84;63.35
77793;BME280;66983;51.438;5.438;2023-03-29T14:41:35;101101.56;;;15.92;63.72
77793;BME280;66983;51.438;5.438;2023-03-29T14:44:04;101097.75;;;15.96;64.18
77793;BME280;66983;51.438;5.438;2023-03-29T14:46:31;101080.16;;;15.90;62.52
77793;BME280;66983;51.438;5.438;2023-03-29T14:48:59;101089.06;;;15.91;64.04
77793;BME280;66983;51.438;5.438;2023-03-29T14:51:27;101072.78;;;15.94;64.21
77793;BME280;66983;51.438;5.438;2023-03-29T14:54:00;101071.72;;;15.97;63.77
77793;BME280;66983;51.438;5.438;2023-03-29T14:56:29;101062.97;;;15.93;63.58
77793;BME280;66983;51.438;5.438;2023-03-29T14:58:59;101062.88;;;15.94;63.23
77793;BME280;66983;51.438;5.438;2023-03-29T15:01:25;101052.22;;;15.93;62.81
77793;BME280;66983;51.438;5.438;2023-03-29T15:04:01;101050.22;;;15.97;63.59
77793;BME280;66983;51.438;5.438;2023-03-29T15:06:29;101053.69;;;15.99;63.40
77793;BME280;66983;51.438;5.438;2023-03-29T15:08:58;101050.91;;;16.00;63.60
77793;BME280;66983;51.438;5.438;2023-03-29T15:11:28;101051.53;;;16.05;63.50
77793;BME280;66983;51.438;5.438;2023-03-29T15:14:06;101043.63;;;16.02;63.52
77793;BME280;66983;51.438;5.438;2023-03-29T15:16:37;101041.03;;;16.01;64.03